sensor_id;sensor_type;location;lat;lon;timestamp;P1;durP1;ratioP1;P2;durP2;ratioP2
57295;SDS011;43146;50.976;18.216;2023-07-20T00:00:50;13.10;;;4.50;;
57295;SDS011;43146;50.976;18.216;2023-07-20T00:03:19;11.60;;;4.70;;
57295;SDS011;43146;50.976;18.216;2023-07-20T00:05:49;12.80;;;4.40;;
57295;SDS011;43146;50.976;18.216;2023-07-20T00:08:15;13.10;;;4.50;;
57295;SDS011;43146;50.976;18.216;2023-07-20T00:10:42;10.90;;;3.80;;
57295;SDS011;43146;50.976;18.216;2023-07-20T00:13:08;11.90;;;4.40;;
57295;SDS011;43146;50.976;18.216;2023-07-20T00:15:35;13.40;;;4.30;;
57295;SDS011;43146;50.976;18.216;2023-07-20T00:18:04;10.70;;;3.90;;
57295;SDS011;43146;50.976;18.216;2023-07-20T00:20:30;10.30;;;3.90;;
57295;SDS011;43146;50.976;18.216;2023-07-20T00:22:56;11.00;;;4.20;;
57295;SDS011;43146;50.976;18.216;2023-07-20T00:25:23;11.40;;;4.40;;
57295;SDS011;43146;50.976;18.216;2023-07-20T00:27:50;21.20;;;5.90;;
57295;SDS011;43146;50.976;18.216;2023-07-20T00:30:16;10.30;;;4.30;;
57295;SDS011;43146;50.976;18.216;2023-07-20T00:32:42;10.70;;;3.80;;
57295;SDS011;43146;50.976;18.216;2023-07-20T00:35:08;11.60;;;4.10;;
57295;SDS011;43146;50.976;18.216;2023-07-20T00:37:35;10.50;;;3.90;;
57295;SDS011;43146;50.976;18.216;2023-07-20T00:40:01;12.90;;;3.50;;
57295;SDS011;43146;50.976;18.216;2023-07-20T00:42:30;12.60;;;3.70;;
57295;SDS011;43146;50.976;18.216;2023-07-20T00:44:56;12.30;;;3.60;;
57295;SDS011;43146;50.976;18.216;2023-07-20T00:47:22;10.50;;;3.80;;
57295;SDS011;43146;50.976;18.216;2023-07-20T00:49:50;15.50;;;3.90;;
57295;SDS011;43146;50.976;18.216;2023-07-20T00:52:17;7.90;;;3.70;;
57295;SDS011;43146;50.976;18.216;2023-07-20T00:54:44;10.70;;;3.70;;
57295;SDS011;43146;50.976;18.216;2023-07-20T00:57:10;13.50;;;3.50;;
57295;SDS011;43146;50.976;18.216;2023-07-20T00:59:39;12.20;;;3.60;;
57295;SDS011;43146;50.976;18.216;2023-07-20T01:02:05;8.70;;;3.30;;
57295;SDS011;43146;50.976;18.216;2023-07-20T01:04:31;13.40;;;3.60;;
57295;SDS011;43146;50.976;18.216;2023-07-20T01:07:00;10.40;;;3.40;;
57295;SDS011;43146;50.976;18.216;2023-07-20T01:10:05;10.40;;;3.20;;
57295;SDS011;43146;50.976;18.216;2023-07-20T01:12:28;10.60;;;3.90;;
57295;SDS011;43146;50.976;18.216;2023-07-20T01:14:58;10.40;;;3.40;;
57295;SDS011;43146;50.976;18.216;2023-07-20T01:17:24;8.40;;;3.10;;
57295;SDS011;43146;50.976;18.216;2023-07-20T01:19:50;9.30;;;3.70;;
57295;SDS011;43146;50.976;18.216;2023-07-20T01:30:43;9.10;;;3.50;;
57295;SDS011;43146;50.976;18.216;2023-07-20T01:33:15;11.70;;;4.10;;
57295;SDS011;43146;50.976;18.216;2023-07-20T01:35:42;9.00;;;3.70;;
57295;SDS011;43146;50.976;18.216;2023-07-20T01:38:09;10.00;;;4.20;;
57295;SDS011;43146;50.976;18.216;2023-07-20T01:40:36;9.80;;;3.70;;
57295;SDS011;43146;50.976;18.216;2023-07-20T01:43:02;11.40;;;4.20;;
57295;SDS011;43146;50.976;18.216;2023-07-20T01:45:28;15.60;;;4.80;;
57295;SDS011;43146;50.976;18.216;2023-07-20T01:47:54;14.60;;;4.50;;
57295;SDS011;43146;50.976;18.216;2023-07-20T01:50:19;10.40;;;4.40;;
57295;SDS011;43146;50.976;18.216;2023-07-20T01:52:45;12.70;;;5.70;;
57295;SDS011;43146;50.976;18.216;2023-07-20T01:55:11;11.80;;;4.80;;
57295;SDS011;43146;50.976;18.216;2023-07-20T01:57:37;9.40;;;4.20;;
57295;SDS011;43146;50.976;18.216;2023-07-20T02:00:03;11.00;;;4.00;;
57295;SDS011;43146;50.976;18.216;2023-07-20T02:02:29;10.30;;;4.40;;
57295;SDS011;43146;50.976;18.216;2023-07-20T02:04:55;10.00;;;3.70;;
57295;SDS011;43146;50.976;18.216;2023-07-20T02:07:21;10.30;;;3.90;;
57295;SDS011;43146;50.976;18.216;2023-07-20T02:09:50;11.90;;;4.60;;
57295;SDS011;43146;50.976;18.216;2023-07-20T02:12:17;10.80;;;4.10;;
57295;SDS011;43146;50.976;18.216;2023-07-20T02:14:43;15.10;;;4.90;;
57295;SDS011;43146;50.976;18.216;2023-07-20T02:17:09;12.00;;;5.00;;
57295;SDS011;43146;50.976;18.216;2023-07-20T02:19:36;13.20;;;5.00;;
57295;SDS011;43146;50.976;18.216;2023-07-20T02:22:02;13.50;;;5.30;;
57295;SDS011;43146;50.976;18.216;2023-07-20T02:24:28;11.80;;;5.30;;
57295;SDS011;43146;50.976;18.216;2023-07-20T02:26:57;11.90;;;4.90;;
57295;SDS011;43146;50.976;18.216;2023-07-20T02:29:23;11.50;;;4.40;;
57295;SDS011;43146;50.976;18.216;2023-07-20T02:31:48;11.80;;;4.90;;
57295;SDS011;43146;50.976;18.216;2023-07-20T02:34:14;13.10;;;4.80;;
57295;SDS011;43146;50.976;18.216;2023-07-20T02:36:40;10.50;;;4.40;;
57295;SDS011;43146;50.976;18.216;2023-07-20T02:39:08;13.20;;;4.30;;
57295;SDS011;43146;50.976;18.216;2023-07-20T02:41:34;13.80;;;4.60;;
57295;SDS011;43146;50.976;18.216;2023-07-20T02:44:00;10.50;;;4.60;;
57295;SDS011;43146;50.976;18.216;2023-07-20T02:46:27;11.60;;;4.30;;
57295;SDS011;43146;50.976;18.216;2023-07-20T02:48:55;14.20;;;4.20;;
57295;SDS011;43146;50.976;18.216;2023-07-20T02:51:21;10.70;;;4.20;;
57295;SDS011;43146;50.976;18.216;2023-07-20T02:53:47;11.60;;;4.10;;
57295;SDS011;43146;50.976;18.216;2023-07-20T02:56:12;11.70;;;4.30;;
57295;SDS011;43146;50.976;18.216;2023-07-20T02:58:40;11.50;;;4.30;;
57295;SDS011;43146;50.976;18.216;2023-07-20T03:01:09;12.50;;;4.10;;
57295;SDS011;43146;50.976;18.216;2023-07-20T03:03:36;15.60;;;4.30;;
57295;SDS011;43146;50.976;18.216;2023-07-20T03:06:07;11.30;;;4.20;;
57295;SDS011;43146;50.976;18.216;2023-07-20T03:08:34;11.70;;;4.40;;
57295;SDS011;43146;50.976;18.216;2023-07-20T03:11:01;14.20;;;5.00;;
57295;SDS011;43146;50.976;18.216;2023-07-20T03:13:27;14.70;;;5.20;;
57295;SDS011;43146;50.976;18.216;2023-07-20T03:15:53;12.00;;;4.70;;
57295;SDS011;43146;50.976;18.216;2023-07-20T03:18:19;15.70;;;5.00;;
57295;SDS011;43146;50.976;18.216;2023-07-20T03:20:45;13.60;;;5.00;;
57295;SDS011;43146;50.976;18.216;2023-07-20T03:23:11;22.40;;;6.70;;
57295;SDS011;43146;50.976;18.216;2023-07-20T03:25:37;13.90;;;4.90;;
57295;SDS011;43146;50.976;18.216;2023-07-20T03:28:04;12.70;;;5.40;;
57295;SDS011;43146;50.976;18.216;2023-07-20T03:30:31;16.60;;;5.60;;
57295;SDS011;43146;50.976;18.216;2023-07-20T03:32:56;20.40;;;5.60;;
57295;SDS011;43146;50.976;18.216;2023-07-20T03:35:22;17.30;;;4.90;;
57295;SDS011;43146;50.976;18.216;2023-07-20T03:37:48;17.80;;;6.70;;
57295;SDS011;43146;50.976;18.216;2023-07-20T03:40:14;15.30;;;5.60;;
57295;SDS011;43146;50.976;18.216;2023-07-20T03:42:41;15.50;;;4.70;;
57295;SDS011;43146;50.976;18.216;2023-07-20T03:45:07;16.10;;;4.60;;
57295;SDS011;43146;50.976;18.216;2023-07-20T03:47:33;13.50;;;5.20;;
57295;SDS011;43146;50.976;18.216;2023-07-20T03:49:59;14.40;;;5.60;;
57295;SDS011;43146;50.976;18.216;2023-07-20T03:52:25;22.30;;;6.80;;
57295;SDS011;43146;50.976;18.216;2023-07-20T03:54:50;29.80;;;8.80;;
57295;SDS011;43146;50.976;18.216;2023-07-20T03:57:16;13.10;;;4.60;;
57295;SDS011;43146;50.976;18.216;2023-07-20T03:59:44;14.90;;;5.10;;
57295;SDS011;43146;50.976;18.216;2023-07-20T04:02:11;10.30;;;4.30;;
57295;SDS011;43146;50.976;18.216;2023-07-20T04:04:37;13.30;;;4.70;;
57295;SDS011;43146;50.976;18.216;2023-07-20T04:07:02;12.40;;;4.30;;
57295;SDS011;43146;50.976;18.216;2023-07-20T04:09:29;12.50;;;4.00;;
57295;SDS011;43146;50.976;18.216;2023-07-20T04:11:56;12.30;;;4.20;;
57295;SDS011;43146;50.976;18.216;2023-07-20T04:14:22;24.60;;;4.60;;
57295;SDS011;43146;50.976;18.216;2023-07-20T04:16:48;11.00;;;3.80;;
57295;SDS011;43146;50.976;18.216;2023-07-20T04:19:17;11.50;;;4.10;;
57295;SDS011;43146;50.976;18.216;2023-07-20T04:21:43;12.90;;;3.80;;
57295;SDS011;43146;50.976;18.216;2023-07-20T04:24:09;13.70;;;4.50;;
57295;SDS011;43146;50.976;18.216;2023-07-20T04:26:35;10.40;;;3.90;;
57295;SDS011;43146;50.976;18.216;2023-07-20T04:29:02;11.50;;;3.80;;
57295;SDS011;43146;50.976;18.216;2023-07-20T04:31:28;12.90;;;3.60;;
57295;SDS011;43146;50.976;18.216;2023-07-20T04:33:55;12.90;;;3.60;;
57295;SDS011;43146;50.976;18.216;2023-07-20T04:36:21;9.00;;;3.00;;
57295;SDS011;43146;50.976;18.216;2023-07-20T04:38:47;9.80;;;3.30;;
57295;SDS011;43146;50.976;18.216;2023-07-20T04:41:13;10.30;;;3.50;;
57295;SDS011;43146;50.976;18.216;2023-07-20T04:43:43;9.70;;;3.40;;
57295;SDS011;43146;50.976;18.216;2023-07-20T04:46:10;9.30;;;2.90;;
57295;SDS011;43146;50.976;18.216;2023-07-20T04:48:36;10.10;;;3.20;;
57295;SDS011;43146;50.976;18.216;2023-07-20T04:51:03;11.30;;;3.50;;
57295;SDS011;43146;50.976;18.216;2023-07-20T04:53:29;8.50;;;3.10;;
57295;SDS011;43146;50.976;18.216;2023-07-20T04:55:57;9.30;;;3.40;;
57295;SDS011;43146;50.976;18.216;2023-07-20T04:58:23;8.40;;;3.20;;
57295;SDS011;43146;50.976;18.216;2023-07-20T05:00:49;12.10;;;3.30;;
57295;SDS011;43146;50.976;18.216;2023-07-20T05:03:15;10.10;;;3.20;;
57295;SDS011;43146;50.976;18.216;2023-07-20T05:05:41;12.00;;;3.70;;
57295;SDS011;43146;50.976;18.216;2023-07-20T05:08:07;12.20;;;3.90;;
57295;SDS011;43146;50.976;18.216;2023-07-20T05:10:36;9.10;;;3.20;;
57295;SDS011;43146;50.976;18.216;2023-07-20T05:13:02;10.00;;;3.60;;
57295;SDS011;43146;50.976;18.216;2023-07-20T05:15:28;10.30;;;2.90;;
57295;SDS011;43146;50.976;18.216;2023-07-20T05:17:54;10.20;;;3.20;;
57295;SDS011;43146;50.976;18.216;2023-07-20T05:20:20;10.90;;;3.50;;
57295;SDS011;43146;50.976;18.216;2023-07-20T05:22:46;10.00;;;3.10;;
57295;SDS011;43146;50.976;18.216;2023-07-20T05:25:12;8.80;;;3.40;;
57295;SDS011;43146;50.976;18.216;2023-07-20T05:27:38;11.40;;;4.20;;
57295;SDS011;43146;50.976;18.216;2023-07-20T05:30:05;10.80;;;3.60;;
57295;SDS011;43146;50.976;18.216;2023-07-20T05:32:32;9.80;;;3.50;;
57295;SDS011;43146;50.976;18.216;2023-07-20T05:34:58;10.70;;;3.70;;
57295;SDS011;43146;50.976;18.216;2023-07-20T05:37:24;11.50;;;4.30;;
57295;SDS011;43146;50.976;18.216;2023-07-20T05:39:52;12.00;;;3.90;;
57295;SDS011;43146;50.976;18.216;2023-07-20T05:42:18;10.30;;;4.20;;
57295;SDS011;43146;50.976;18.216;2023-07-20T05:44:44;11.00;;;4.30;;
57295;SDS011;43146;50.976;18.216;2023-07-20T05:47:09;12.40;;;4.90;;
57295;SDS011;43146;50.976;18.216;2023-07-20T05:49:35;12.40;;;4.70;;
57295;SDS011;43146;50.976;18.216;2023-07-20T05:52:01;10.70;;;4.60;;
57295;SDS011;43146;50.976;18.216;2023-07-20T05:54:27;12.50;;;4.70;;
57295;SDS011;43146;50.976;18.216;2023-07-20T05:56:54;10.20;;;4.40;;
57295;SDS011;43146;50.976;18.216;2023-07-20T05:59:20;10.70;;;4.50;;
57295;SDS011;43146;50.976;18.216;2023-07-20T06:01:46;11.00;;;4.80;;
57295;SDS011;43146;50.976;18.216;2023-07-20T06:04:15;11.60;;;5.20;;
57295;SDS011;43146;50.976;18.216;2023-07-20T06:06:41;10.80;;;5.20;;
57295;SDS011;43146;50.976;18.216;2023-07-20T06:09:11;10.00;;;4.70;;
57295;SDS011;43146;50.976;18.216;2023-07-20T06:11:38;13.60;;;5.50;;
57295;SDS011;43146;50.976;18.216;2023-07-20T06:14:04;12.60;;;5.80;;
57295;SDS011;43146;50.976;18.216;2023-07-20T06:16:30;12.60;;;5.80;;
57295;SDS011;43146;50.976;18.216;2023-07-20T06:18:55;13.00;;;6.00;;
57295;SDS011;43146;50.976;18.216;2023-07-20T06:21:21;13.70;;;6.40;;
57295;SDS011;43146;50.976;18.216;2023-07-20T06:23:47;11.60;;;6.30;;
57295;SDS011;43146;50.976;18.216;2023-07-20T06:26:13;13.80;;;6.50;;
57295;SDS011;43146;50.976;18.216;2023-07-20T06:28:39;11.10;;;6.30;;
57295;SDS011;43146;50.976;18.216;2023-07-20T06:31:08;13.70;;;6.30;;
57295;SDS011;43146;50.976;18.216;2023-07-20T06:33:34;11.70;;;5.80;;
57295;SDS011;43146;50.976;18.216;2023-07-20T06:36:00;12.00;;;5.70;;
57295;SDS011;43146;50.976;18.216;2023-07-20T06:38:26;13.50;;;5.70;;
57295;SDS011;43146;50.976;18.216;2023-07-20T06:40:52;12.10;;;5.70;;
57295;SDS011;43146;50.976;18.216;2023-07-20T06:43:18;11.90;;;5.40;;
57295;SDS011;43146;50.976;18.216;2023-07-20T06:45:44;11.00;;;5.40;;
57295;SDS011;43146;50.976;18.216;2023-07-20T06:48:11;12.60;;;5.60;;
57295;SDS011;43146;50.976;18.216;2023-07-20T06:50:37;13.90;;;5.70;;
57295;SDS011;43146;50.976;18.216;2023-07-20T06:53:03;12.80;;;5.20;;
57295;SDS011;43146;50.976;18.216;2023-07-20T06:55:29;14.30;;;5.00;;
57295;SDS011;43146;50.976;18.216;2023-07-20T06:57:56;12.20;;;5.50;;
57295;SDS011;43146;50.976;18.216;2023-07-20T07:00:22;10.70;;;4.70;;
57295;SDS011;43146;50.976;18.216;2023-07-20T07:02:48;13.90;;;5.00;;
57295;SDS011;43146;50.976;18.216;2023-07-20T07:05:15;11.70;;;4.00;;
57295;SDS011;43146;50.976;18.216;2023-07-20T07:07:41;10.30;;;4.20;;
57295;SDS011;43146;50.976;18.216;2023-07-20T07:10:07;10.90;;;4.70;;
57295;SDS011;43146;50.976;18.216;2023-07-20T07:12:34;11.20;;;4.30;;
57295;SDS011;43146;50.976;18.216;2023-07-20T07:15:01;12.50;;;4.30;;
57295;SDS011;43146;50.976;18.216;2023-07-20T07:17:33;9.30;;;3.60;;
57295;SDS011;43146;50.976;18.216;2023-07-20T07:20:00;10.70;;;4.20;;
57295;SDS011;43146;50.976;18.216;2023-07-20T07:22:26;11.10;;;4.50;;
57295;SDS011;43146;50.976;18.216;2023-07-20T07:24:52;9.00;;;3.60;;
57295;SDS011;43146;50.976;18.216;2023-07-20T07:27:19;9.10;;;3.90;;
57295;SDS011;43146;50.976;18.216;2023-07-20T07:29:45;12.80;;;3.70;;
57295;SDS011;43146;50.976;18.216;2023-07-20T07:32:10;8.10;;;3.00;;
57295;SDS011;43146;50.976;18.216;2023-07-20T07:34:36;9.30;;;3.40;;
57295;SDS011;43146;50.976;18.216;2023-07-20T07:37:06;7.30;;;2.80;;
57295;SDS011;43146;50.976;18.216;2023-07-20T07:39:32;9.50;;;2.70;;
57295;SDS011;43146;50.976;18.216;2023-07-20T07:42:00;9.00;;;3.10;;
57295;SDS011;43146;50.976;18.216;2023-07-20T07:44:26;8.80;;;3.10;;
57295;SDS011;43146;50.976;18.216;2023-07-20T07:46:52;7.70;;;2.70;;
57295;SDS011;43146;50.976;18.216;2023-07-20T07:49:18;6.20;;;2.30;;
57295;SDS011;43146;50.976;18.216;2023-07-20T07:51:45;7.60;;;2.50;;
57295;SDS011;43146;50.976;18.216;2023-07-20T07:54:11;11.10;;;3.30;;
57295;SDS011;43146;50.976;18.216;2023-07-20T07:56:37;8.70;;;2.70;;
57295;SDS011;43146;50.976;18.216;2023-07-20T07:59:04;10.00;;;2.80;;
57295;SDS011;43146;50.976;18.216;2023-07-20T08:01:30;7.90;;;2.80;;
57295;SDS011;43146;50.976;18.216;2023-07-20T08:03:55;8.90;;;2.50;;
57295;SDS011;43146;50.976;18.216;2023-07-20T08:06:21;10.00;;;2.90;;
57295;SDS011;43146;50.976;18.216;2023-07-20T08:08:49;8.10;;;2.60;;
57295;SDS011;43146;50.976;18.216;2023-07-20T08:11:15;9.20;;;2.90;;
57295;SDS011;43146;50.976;18.216;2023-07-20T08:13:43;8.60;;;2.80;;
57295;SDS011;43146;50.976;18.216;2023-07-20T08:16:09;8.90;;;3.00;;
57295;SDS011;43146;50.976;18.216;2023-07-20T08:18:34;9.00;;;3.00;;
57295;SDS011;43146;50.976;18.216;2023-07-20T08:21:01;8.00;;;3.10;;
57295;SDS011;43146;50.976;18.216;2023-07-20T08:23:28;7.40;;;2.60;;
57295;SDS011;43146;50.976;18.216;2023-07-20T08:25:54;8.40;;;3.00;;
57295;SDS011;43146;50.976;18.216;2023-07-20T08:28:20;8.50;;;2.90;;
57295;SDS011;43146;50.976;18.216;2023-07-20T08:30:47;8.20;;;2.90;;
57295;SDS011;43146;50.976;18.216;2023-07-20T08:33:14;7.60;;;2.60;;
57295;SDS011;43146;50.976;18.216;2023-07-20T08:35:41;8.60;;;2.50;;
57295;SDS011;43146;50.976;18.216;2023-07-20T08:38:18;8.70;;;2.70;;
57295;SDS011;43146;50.976;18.216;2023-07-20T08:40:45;8.50;;;2.60;;
57295;SDS011;43146;50.976;18.216;2023-07-20T08:43:11;8.10;;;2.60;;
57295;SDS011;43146;50.976;18.216;2023-07-20T08:45:39;7.60;;;2.60;;
57295;SDS011;43146;50.976;18.216;2023-07-20T08:48:06;7.60;;;2.50;;
57295;SDS011;43146;50.976;18.216;2023-07-20T08:50:33;8.30;;;2.60;;
57295;SDS011;43146;50.976;18.216;2023-07-20T08:53:00;9.30;;;2.80;;
57295;SDS011;43146;50.976;18.216;2023-07-20T08:55:27;8.40;;;2.70;;
57295;SDS011;43146;50.976;18.216;2023-07-20T08:57:57;7.90;;;2.60;;
57295;SDS011;43146;50.976;18.216;2023-07-20T09:00:25;7.80;;;2.90;;
57295;SDS011;43146;50.976;18.216;2023-07-20T09:02:52;8.50;;;2.90;;
57295;SDS011;43146;50.976;18.216;2023-07-20T09:05:20;10.90;;;4.00;;
57295;SDS011;43146;50.976;18.216;2023-07-20T09:07:48;9.20;;;3.30;;
57295;SDS011;43146;50.976;18.216;2023-07-20T09:10:14;8.00;;;3.10;;
57295;SDS011;43146;50.976;18.216;2023-07-20T09:12:41;8.70;;;3.20;;
57295;SDS011;43146;50.976;18.216;2023-07-20T09:15:09;8.10;;;3.10;;
57295;SDS011;43146;50.976;18.216;2023-07-20T09:17:36;10.00;;;3.00;;
57295;SDS011;43146;50.976;18.216;2023-07-20T09:20:06;7.00;;;2.70;;
57295;SDS011;43146;50.976;18.216;2023-07-20T09:22:36;8.00;;;2.80;;
57295;SDS011;43146;50.976;18.216;2023-07-20T09:25:07;8.10;;;2.90;;
57295;SDS011;43146;50.976;18.216;2023-07-20T09:27:43;10.30;;;3.00;;
57295;SDS011;43146;50.976;18.216;2023-07-20T09:30:11;13.80;;;4.80;;
57295;SDS011;43146;50.976;18.216;2023-07-20T09:32:39;10.10;;;3.10;;
57295;SDS011;43146;50.976;18.216;2023-07-20T09:35:07;9.20;;;3.40;;
57295;SDS011;43146;50.976;18.216;2023-07-20T09:37:38;9.80;;;3.20;;
57295;SDS011;43146;50.976;18.216;2023-07-20T09:40:05;9.10;;;3.00;;
57295;SDS011;43146;50.976;18.216;2023-07-20T09:42:34;8.50;;;2.80;;
57295;SDS011;43146;50.976;18.216;2023-07-20T09:45:00;14.30;;;5.40;;
57295;SDS011;43146;50.976;18.216;2023-07-20T09:47:26;9.70;;;3.80;;
57295;SDS011;43146;50.976;18.216;2023-07-20T09:49:58;8.70;;;3.00;;
57295;SDS011;43146;50.976;18.216;2023-07-20T09:52:25;9.60;;;2.80;;
57295;SDS011;43146;50.976;18.216;2023-07-20T09:54:51;5.40;;;2.30;;
57295;SDS011;43146;50.976;18.216;2023-07-20T09:57:18;8.60;;;2.60;;
57295;SDS011;43146;50.976;18.216;2023-07-20T09:59:43;20.40;;;9.40;;
57295;SDS011;43146;50.976;18.216;2023-07-20T10:02:25;7.90;;;2.90;;
57295;SDS011;43146;50.976;18.216;2023-07-20T10:04:58;6.70;;;2.50;;
57295;SDS011;43146;50.976;18.216;2023-07-20T10:07:30;7.30;;;2.80;;
57295;SDS011;43146;50.976;18.216;2023-07-20T10:09:56;8.90;;;2.70;;
57295;SDS011;43146;50.976;18.216;2023-07-20T10:12:26;8.00;;;2.40;;
57295;SDS011;43146;50.976;18.216;2023-07-20T10:14:54;5.60;;;2.10;;
57295;SDS011;43146;50.976;18.216;2023-07-20T10:20:28;11.50;;;3.50;;
57295;SDS011;43146;50.976;18.216;2023-07-20T10:22:56;12.20;;;5.70;;
57295;SDS011;43146;50.976;18.216;2023-07-20T10:25:22;11.90;;;4.30;;
57295;SDS011;43146;50.976;18.216;2023-07-20T10:27:49;13.60;;;5.30;;
57295;SDS011;43146;50.976;18.216;2023-07-20T10:30:16;12.00;;;6.40;;
57295;SDS011;43146;50.976;18.216;2023-07-20T10:32:44;10.90;;;5.20;;
57295;SDS011;43146;50.976;18.216;2023-07-20T10:35:14;9.80;;;5.00;;
57295;SDS011;43146;50.976;18.216;2023-07-20T10:40:39;10.90;;;3.80;;
57295;SDS011;43146;50.976;18.216;2023-07-20T10:43:08;8.80;;;3.90;;
57295;SDS011;43146;50.976;18.216;2023-07-20T10:45:36;9.70;;;3.80;;
57295;SDS011;43146;50.976;18.216;2023-07-20T10:48:03;10.00;;;4.40;;
57295;SDS011;43146;50.976;18.216;2023-07-20T10:50:33;13.90;;;4.20;;
57295;SDS011;43146;50.976;18.216;2023-07-20T10:53:12;10.80;;;4.40;;
57295;SDS011;43146;50.976;18.216;2023-07-20T10:55:42;10.10;;;3.70;;
57295;SDS011;43146;50.976;18.216;2023-07-20T10:58:10;10.10;;;3.50;;
57295;SDS011;43146;50.976;18.216;2023-07-20T11:00:37;9.50;;;3.60;;
57295;SDS011;43146;50.976;18.216;2023-07-20T11:03:31;10.80;;;3.50;;
57295;SDS011;43146;50.976;18.216;2023-07-20T11:09:07;9.10;;;3.50;;
57295;SDS011;43146;50.976;18.216;2023-07-20T11:11:43;9.30;;;3.40;;
57295;SDS011;43146;50.976;18.216;2023-07-20T11:14:14;9.90;;;3.50;;
57295;SDS011;43146;50.976;18.216;2023-07-20T11:16:57;7.20;;;2.90;;
57295;SDS011;43146;50.976;18.216;2023-07-20T11:19:36;13.50;;;7.10;;
57295;SDS011;43146;50.976;18.216;2023-07-20T11:22:04;8.60;;;3.20;;
57295;SDS011;43146;50.976;18.216;2023-07-20T11:24:33;6.80;;;2.50;;
57295;SDS011;43146;50.976;18.216;2023-07-20T11:26:59;7.60;;;2.80;;
57295;SDS011;43146;50.976;18.216;2023-07-20T11:29:26;10.40;;;3.10;;
57295;SDS011;43146;50.976;18.216;2023-07-20T11:31:52;7.10;;;2.60;;
57295;SDS011;43146;50.976;18.216;2023-07-20T11:34:19;9.00;;;3.30;;
57295;SDS011;43146;50.976;18.216;2023-07-20T11:36:50;6.20;;;2.50;;
57295;SDS011;43146;50.976;18.216;2023-07-20T11:39:17;6.20;;;2.50;;
57295;SDS011;43146;50.976;18.216;2023-07-20T11:41:55;6.50;;;2.50;;
57295;SDS011;43146;50.976;18.216;2023-07-20T11:44:28;8.10;;;2.50;;
57295;SDS011;43146;50.976;18.216;2023-07-20T11:47:00;8.00;;;2.80;;
57295;SDS011;43146;50.976;18.216;2023-07-20T11:49:29;5.40;;;2.10;;
57295;SDS011;43146;50.976;18.216;2023-07-20T11:51:57;5.60;;;2.00;;
57295;SDS011;43146;50.976;18.216;2023-07-20T11:54:26;6.40;;;2.20;;
57295;SDS011;43146;50.976;18.216;2023-07-20T11:56:54;4.70;;;2.10;;
57295;SDS011;43146;50.976;18.216;2023-07-20T11:59:21;4.40;;;1.90;;
57295;SDS011;43146;50.976;18.216;2023-07-20T12:01:47;4.40;;;1.50;;
57295;SDS011;43146;50.976;18.216;2023-07-20T12:04:13;4.90;;;1.90;;
57295;SDS011;43146;50.976;18.216;2023-07-20T12:06:39;6.60;;;1.80;;
57295;SDS011;43146;50.976;18.216;2023-07-20T12:09:05;7.20;;;2.10;;
57295;SDS011;43146;50.976;18.216;2023-07-20T12:11:35;4.30;;;1.60;;
57295;SDS011;43146;50.976;18.216;2023-07-20T12:16:32;3.80;;;1.70;;
57295;SDS011;43146;50.976;18.216;2023-07-20T12:19:09;4.00;;;1.70;;
57295;SDS011;43146;50.976;18.216;2023-07-20T12:21:38;7.30;;;2.60;;
57295;SDS011;43146;50.976;18.216;2023-07-20T12:24:10;5.30;;;2.00;;
57295;SDS011;43146;50.976;18.216;2023-07-20T12:26:37;4.90;;;1.70;;
57295;SDS011;43146;50.976;18.216;2023-07-20T12:29:04;5.30;;;1.90;;
57295;SDS011;43146;50.976;18.216;2023-07-20T12:31:33;6.10;;;2.70;;
57295;SDS011;43146;50.976;18.216;2023-07-20T12:34:02;6.00;;;1.90;;
57295;SDS011;43146;50.976;18.216;2023-07-20T12:36:28;4.30;;;1.80;;
57295;SDS011;43146;50.976;18.216;2023-07-20T12:38:55;5.10;;;1.70;;
57295;SDS011;43146;50.976;18.216;2023-07-20T12:41:21;6.10;;;2.00;;
57295;SDS011;43146;50.976;18.216;2023-07-20T12:43:47;4.20;;;1.80;;
57295;SDS011;43146;50.976;18.216;2023-07-20T12:46:13;3.10;;;1.70;;
57295;SDS011;43146;50.976;18.216;2023-07-20T12:48:39;7.00;;;2.00;;
57295;SDS011;43146;50.976;18.216;2023-07-20T12:51:08;6.60;;;2.00;;
57295;SDS011;43146;50.976;18.216;2023-07-20T12:53:34;3.90;;;1.70;;
57295;SDS011;43146;50.976;18.216;2023-07-20T12:56:01;5.40;;;1.90;;
57295;SDS011;43146;50.976;18.216;2023-07-20T12:58:28;5.30;;;1.90;;
57295;SDS011;43146;50.976;18.216;2023-07-20T13:00:54;7.30;;;1.80;;
57295;SDS011;43146;50.976;18.216;2023-07-20T13:03:21;5.30;;;2.00;;
57295;SDS011;43146;50.976;18.216;2023-07-20T13:05:47;6.80;;;1.90;;
57295;SDS011;43146;50.976;18.216;2023-07-20T13:08:14;4.20;;;1.70;;
57295;SDS011;43146;50.976;18.216;2023-07-20T13:10:40;6.00;;;1.80;;
57295;SDS011;43146;50.976;18.216;2023-07-20T13:13:07;11.50;;;1.90;;
57295;SDS011;43146;50.976;18.216;2023-07-20T13:15:40;5.20;;;1.90;;
57295;SDS011;43146;50.976;18.216;2023-07-20T13:18:07;4.70;;;1.80;;
57295;SDS011;43146;50.976;18.216;2023-07-20T13:20:32;4.30;;;1.80;;
57295;SDS011;43146;50.976;18.216;2023-07-20T13:22:58;6.30;;;1.90;;
57295;SDS011;43146;50.976;18.216;2023-07-20T13:25:24;6.90;;;2.20;;
57295;SDS011;43146;50.976;18.216;2023-07-20T13:27:53;7.60;;;2.20;;
57295;SDS011;43146;50.976;18.216;2023-07-20T13:30:19;6.60;;;1.90;;
57295;SDS011;43146;50.976;18.216;2023-07-20T13:32:46;6.50;;;1.90;;
57295;SDS011;43146;50.976;18.216;2023-07-20T13:35:13;4.20;;;1.80;;
57295;SDS011;43146;50.976;18.216;2023-07-20T13:37:40;4.20;;;1.90;;
57295;SDS011;43146;50.976;18.216;2023-07-20T13:40:08;5.40;;;1.90;;
57295;SDS011;43146;50.976;18.216;2023-07-20T13:42:39;4.80;;;1.60;;
57295;SDS011;43146;50.976;18.216;2023-07-20T13:45:08;4.50;;;1.80;;
57295;SDS011;43146;50.976;18.216;2023-07-20T13:47:34;5.40;;;1.80;;
57295;SDS011;43146;50.976;18.216;2023-07-20T13:50:00;4.80;;;1.60;;
57295;SDS011;43146;50.976;18.216;2023-07-20T13:52:26;5.50;;;1.60;;
57295;SDS011;43146;50.976;18.216;2023-07-20T13:54:54;8.60;;;1.90;;
57295;SDS011;43146;50.976;18.216;2023-07-20T13:57:20;3.90;;;1.90;;
57295;SDS011;43146;50.976;18.216;2023-07-20T13:59:46;5.70;;;2.10;;
57295;SDS011;43146;50.976;18.216;2023-07-20T14:02:13;5.70;;;1.90;;
57295;SDS011;43146;50.976;18.216;2023-07-20T14:04:40;4.60;;;1.80;;
57295;SDS011;43146;50.976;18.216;2023-07-20T14:07:07;4.20;;;1.70;;
57295;SDS011;43146;50.976;18.216;2023-07-20T14:09:34;5.30;;;1.80;;
57295;SDS011;43146;50.976;18.216;2023-07-20T14:12:02;4.90;;;2.20;;
57295;SDS011;43146;50.976;18.216;2023-07-20T14:14:29;4.30;;;1.80;;
57295;SDS011;43146;50.976;18.216;2023-07-20T14:16:58;5.40;;;2.20;;
57295;SDS011;43146;50.976;18.216;2023-07-20T14:19:30;6.30;;;2.10;;
57295;SDS011;43146;50.976;18.216;2023-07-20T14:21:56;7.80;;;2.80;;
57295;SDS011;43146;50.976;18.216;2023-07-20T14:24:24;8.90;;;2.70;;
57295;SDS011;43146;50.976;18.216;2023-07-20T14:26:53;6.50;;;2.10;;
57295;SDS011;43146;50.976;18.216;2023-07-20T14:29:20;7.80;;;2.30;;
57295;SDS011;43146;50.976;18.216;2023-07-20T14:31:46;5.50;;;2.10;;
57295;SDS011;43146;50.976;18.216;2023-07-20T14:34:17;4.40;;;2.10;;
57295;SDS011;43146;50.976;18.216;2023-07-20T14:36:44;9.20;;;3.30;;
57295;SDS011;43146;50.976;18.216;2023-07-20T14:39:12;8.50;;;3.10;;
57295;SDS011;43146;50.976;18.216;2023-07-20T14:41:37;5.40;;;2.10;;
57295;SDS011;43146;50.976;18.216;2023-07-20T14:44:03;4.00;;;1.80;;
57295;SDS011;43146;50.976;18.216;2023-07-20T14:46:32;4.20;;;1.70;;
57295;SDS011;43146;50.976;18.216;2023-07-20T14:48:58;4.50;;;1.70;;